sensor_id;sensor_type;location;lat;lon;timestamp;P1;durP1;ratioP1;P2;durP2;ratioP2
66546;SDS011;53400;50.364;14.874;2023-06-10T00:01:46;13.60;;;9.98;;
66546;SDS011;53400;50.364;14.874;2023-06-10T00:04:14;12.40;;;9.90;;
66546;SDS011;53400;50.364;14.874;2023-06-10T00:06:42;12.95;;;10.18;;
66546;SDS011;53400;50.364;14.874;2023-06-10T00:09:09;12.13;;;9.00;;
66546;SDS011;53400;50.364;14.874;2023-06-10T00:11:40;11.38;;;9.60;;
66546;SDS011;53400;50.364;14.874;2023-06-10T00:14:06;12.07;;;9.32;;
66546;SDS011;53400;50.364;14.874;2023-06-10T00:16:33;12.15;;;9.80;;
66546;SDS011;53400;50.364;14.874;2023-06-10T00:18:59;10.45;;;8.50;;
66546;SDS011;53400;50.364;14.874;2023-06-10T00:21:29;11.32;;;9.00;;
66546;SDS011;53400;50.364;14.874;2023-06-10T00:23:56;13.48;;;11.23;;
66546;SDS011;53400;50.364;14.874;2023-06-10T00:26:23;21.17;;;16.25;;
66546;SDS011;53400;50.364;14.874;2023-06-10T00:28:50;21.65;;;18.10;;
66546;SDS011;53400;50.364;14.874;2023-06-10T00:31:16;13.60;;;11.25;;
66546;SDS011;53400;50.364;14.874;2023-06-10T00:33:43;15.00;;;12.10;;
66546;SDS011;53400;50.364;14.874;2023-06-10T00:36:09;16.50;;;13.52;;
66546;SDS011;53400;50.364;14.874;2023-06-10T00:38:37;15.05;;;12.20;;
66546;SDS011;53400;50.364;14.874;2023-06-10T00:41:03;14.90;;;11.18;;
66546;SDS011;53400;50.364;14.874;2023-06-10T00:43:29;13.00;;;10.00;;
66546;SDS011;53400;50.364;14.874;2023-06-10T00:45:56;13.18;;;10.10;;
66546;SDS011;53400;50.364;14.874;2023-06-10T00:48:22;14.63;;;11.18;;
66546;SDS011;53400;50.364;14.874;2023-06-10T00:50:50;11.77;;;9.55;;
66546;SDS011;53400;50.364;14.874;2023-06-10T00:53:16;14.30;;;10.55;;
66546;SDS011;53400;50.364;14.874;2023-06-10T00:55:45;13.00;;;10.18;;
66546;SDS011;53400;50.364;14.874;2023-06-10T00:58:12;12.77;;;9.80;;
66546;SDS011;53400;50.364;14.874;2023-06-10T01:00:39;16.20;;;11.63;;
66546;SDS011;53400;50.364;14.874;2023-06-10T01:03:06;15.25;;;11.57;;
66546;SDS011;53400;50.364;14.874;2023-06-10T01:05:33;16.42;;;11.68;;
66546;SDS011;53400;50.364;14.874;2023-06-10T01:08:01;16.35;;;12.13;;
66546;SDS011;53400;50.364;14.874;2023-06-10T01:10:33;18.33;;;12.60;;
66546;SDS011;53400;50.364;14.874;2023-06-10T01:13:05;17.90;;;12.70;;
66546;SDS011;53400;50.364;14.874;2023-06-10T01:15:34;17.83;;;12.82;;
66546;SDS011;53400;50.364;14.874;2023-06-10T01:18:01;16.58;;;12.35;;
66546;SDS011;53400;50.364;14.874;2023-06-10T01:20:29;17.58;;;12.60;;
66546;SDS011;53400;50.364;14.874;2023-06-10T01:22:58;20.70;;;14.93;;
66546;SDS011;53400;50.364;14.874;2023-06-10T01:25:26;20.60;;;14.98;;
66546;SDS011;53400;50.364;14.874;2023-06-10T01:27:53;20.52;;;15.00;;
66546;SDS011;53400;50.364;14.874;2023-06-10T01:30:26;20.98;;;15.40;;
66546;SDS011;53400;50.364;14.874;2023-06-10T01:32:56;24.35;;;16.45;;
66546;SDS011;53400;50.364;14.874;2023-06-10T01:35:25;23.95;;;16.10;;
66546;SDS011;53400;50.364;14.874;2023-06-10T01:37:54;21.85;;;16.15;;
66546;SDS011;53400;50.364;14.874;2023-06-10T01:40:23;23.80;;;16.50;;
66546;SDS011;53400;50.364;14.874;2023-06-10T01:42:52;22.27;;;15.98;;
66546;SDS011;53400;50.364;14.874;2023-06-10T01:45:18;20.35;;;14.90;;
66546;SDS011;53400;50.364;14.874;2023-06-10T01:47:45;20.52;;;15.35;;
66546;SDS011;53400;50.364;14.874;2023-06-10T01:50:11;20.08;;;13.93;;
66546;SDS011;53400;50.364;14.874;2023-06-10T01:52:37;21.50;;;15.80;;
66546;SDS011;53400;50.364;14.874;2023-06-10T01:55:04;22.33;;;16.80;;
66546;SDS011;53400;50.364;14.874;2023-06-10T01:57:32;18.58;;;15.07;;
66546;SDS011;53400;50.364;14.874;2023-06-10T01:59:58;24.73;;;16.60;;
66546;SDS011;53400;50.364;14.874;2023-06-10T02:02:24;20.52;;;14.73;;
66546;SDS011;53400;50.364;14.874;2023-06-10T02:04:50;18.38;;;14.15;;
66546;SDS011;53400;50.364;14.874;2023-06-10T02:07:16;18.83;;;14.52;;
66546;SDS011;53400;50.364;14.874;2023-06-10T02:09:44;17.52;;;14.07;;
66546;SDS011;53400;50.364;14.874;2023-06-10T02:12:10;17.45;;;13.10;;
66546;SDS011;53400;50.364;14.874;2023-06-10T02:14:38;16.27;;;12.80;;
66546;SDS011;53400;50.364;14.874;2023-06-10T02:17:04;16.10;;;12.95;;
66546;SDS011;53400;50.364;14.874;2023-06-10T02:19:31;16.48;;;13.25;;
66546;SDS011;53400;50.364;14.874;2023-06-10T02:21:57;16.50;;;12.90;;
66546;SDS011;53400;50.364;14.874;2023-06-10T02:24:23;14.40;;;12.30;;
66546;SDS011;53400;50.364;14.874;2023-06-10T02:26:49;16.80;;;13.00;;
66546;SDS011;53400;50.364;14.874;2023-06-10T02:29:17;17.13;;;14.10;;
66546;SDS011;53400;50.364;14.874;2023-06-10T02:31:44;15.82;;;13.05;;
66546;SDS011;53400;50.364;14.874;2023-06-10T02:34:11;17.88;;;14.20;;
66546;SDS011;53400;50.364;14.874;2023-06-10T02:36:36;16.38;;;12.02;;
66546;SDS011;53400;50.364;14.874;2023-06-10T02:39:03;16.52;;;13.18;;
66546;SDS011;53400;50.364;14.874;2023-06-10T02:41:29;18.42;;;14.68;;
66546;SDS011;53400;50.364;14.874;2023-06-10T02:43:56;18.52;;;14.38;;
66546;SDS011;53400;50.364;14.874;2023-06-10T02:46:22;19.52;;;15.25;;
66546;SDS011;53400;50.364;14.874;2023-06-10T02:48:49;18.48;;;14.57;;
66546;SDS011;53400;50.364;14.874;2023-06-10T02:51:17;20.83;;;16.48;;
66546;SDS011;53400;50.364;14.874;2023-06-10T02:53:43;22.42;;;15.60;;
66546;SDS011;53400;50.364;14.874;2023-06-10T02:56:08;20.40;;;16.13;;
66546;SDS011;53400;50.364;14.874;2023-06-10T02:58:35;20.77;;;15.90;;
66546;SDS011;53400;50.364;14.874;2023-06-10T03:01:01;22.10;;;16.48;;
66546;SDS011;53400;50.364;14.874;2023-06-10T03:03:27;23.92;;;16.70;;
66546;SDS011;53400;50.364;14.874;2023-06-10T03:05:54;21.60;;;15.45;;
66546;SDS011;53400;50.364;14.874;2023-06-10T03:08:22;18.45;;;13.98;;
66546;SDS011;53400;50.364;14.874;2023-06-10T03:10:48;19.42;;;15.35;;
66546;SDS011;53400;50.364;14.874;2023-06-10T03:13:14;17.73;;;14.27;;
66546;SDS011;53400;50.364;14.874;2023-06-10T03:15:40;19.90;;;15.30;;
66546;SDS011;53400;50.364;14.874;2023-06-10T03:18:06;21.42;;;15.73;;
66546;SDS011;53400;50.364;14.874;2023-06-10T03:20:33;18.40;;;14.55;;
66546;SDS011;53400;50.364;14.874;2023-06-10T03:23:03;19.75;;;14.88;;
66546;SDS011;53400;50.364;14.874;2023-06-10T03:25:31;18.90;;;14.63;;
66546;SDS011;53400;50.364;14.874;2023-06-10T03:27:58;19.15;;;15.52;;
66546;SDS011;53400;50.364;14.874;2023-06-10T03:30:24;18.50;;;15.07;;
66546;SDS011;53400;50.364;14.874;2023-06-10T03:32:50;18.65;;;14.25;;
66546;SDS011;53400;50.364;14.874;2023-06-10T03:35:17;19.17;;;14.32;;
66546;SDS011;53400;50.364;14.874;2023-06-10T03:37:45;21.33;;;15.32;;
66546;SDS011;53400;50.364;14.874;2023-06-10T03:40:12;21.33;;;15.68;;
66546;SDS011;53400;50.364;14.874;2023-06-10T03:42:38;22.65;;;16.35;;
66546;SDS011;53400;50.364;14.874;2023-06-10T03:45:05;22.02;;;17.33;;
66546;SDS011;53400;50.364;14.874;2023-06-10T03:47:33;23.85;;;16.50;;
66546;SDS011;53400;50.364;14.874;2023-06-10T03:50:00;21.77;;;16.25;;
66546;SDS011;53400;50.364;14.874;2023-06-10T03:52:26;21.65;;;17.10;;
66546;SDS011;53400;50.364;14.874;2023-06-10T03:54:52;22.20;;;17.10;;
66546;SDS011;53400;50.364;14.874;2023-06-10T03:57:20;23.30;;;17.42;;
66546;SDS011;53400;50.364;14.874;2023-06-10T03:59:47;22.05;;;16.98;;
66546;SDS011;53400;50.364;14.874;2023-06-10T04:02:16;23.73;;;17.35;;
66546;SDS011;53400;50.364;14.874;2023-06-10T04:04:43;20.88;;;16.38;;
66546;SDS011;53400;50.364;14.874;2023-06-10T04:07:09;21.48;;;16.13;;
66546;SDS011;53400;50.364;14.874;2023-06-10T04:09:35;21.95;;;16.70;;
66546;SDS011;53400;50.364;14.874;2023-06-10T04:12:02;20.05;;;15.65;;
66546;SDS011;53400;50.364;14.874;2023-06-10T04:14:32;19.58;;;16.38;;
66546;SDS011;53400;50.364;14.874;2023-06-10T04:16:59;19.48;;;15.77;;
66546;SDS011;53400;50.364;14.874;2023-06-10T04:19:25;22.35;;;17.45;;
66546;SDS011;53400;50.364;14.874;2023-06-10T04:21:52;21.23;;;17.05;;
66546;SDS011;53400;50.364;14.874;2023-06-10T04:24:18;20.90;;;16.40;;
66546;SDS011;53400;50.364;14.874;2023-06-10T04:26:44;20.75;;;16.15;;
66546;SDS011;53400;50.364;14.874;2023-06-10T04:29:10;21.05;;;16.23;;
66546;SDS011;53400;50.364;14.874;2023-06-10T04:31:38;21.23;;;16.90;;
66546;SDS011;53400;50.364;14.874;2023-06-10T04:34:05;20.23;;;15.98;;
66546;SDS011;53400;50.364;14.874;2023-06-10T04:36:31;21.67;;;16.95;;
66546;SDS011;53400;50.364;14.874;2023-06-10T04:38:57;21.45;;;16.48;;
66546;SDS011;53400;50.364;14.874;2023-06-10T04:41:24;20.10;;;16.05;;
66546;SDS011;53400;50.364;14.874;2023-06-10T04:43:51;20.05;;;15.35;;
66546;SDS011;53400;50.364;14.874;2023-06-10T04:46:17;19.35;;;16.45;;
66546;SDS011;53400;50.364;14.874;2023-06-10T04:48:44;21.08;;;16.55;;
66546;SDS011;53400;50.364;14.874;2023-06-10T04:51:12;18.42;;;15.40;;
66546;SDS011;53400;50.364;14.874;2023-06-10T04:53:38;20.17;;;17.48;;
66546;SDS011;53400;50.364;14.874;2023-06-10T04:56:05;19.40;;;16.48;;
66546;SDS011;53400;50.364;14.874;2023-06-10T04:58:33;21.17;;;17.17;;
66546;SDS011;53400;50.364;14.874;2023-06-10T05:00:59;19.67;;;16.85;;
66546;SDS011;53400;50.364;14.874;2023-06-10T05:03:25;20.55;;;16.90;;
66546;SDS011;53400;50.364;14.874;2023-06-10T05:05:53;18.90;;;15.93;;
66546;SDS011;53400;50.364;14.874;2023-06-10T05:08:19;20.55;;;16.67;;
66546;SDS011;53400;50.364;14.874;2023-06-10T05:10:48;17.27;;;14.18;;
66546;SDS011;53400;50.364;14.874;2023-06-10T05:13:16;18.05;;;15.25;;
66546;SDS011;53400;50.364;14.874;2023-06-10T05:15:43;17.10;;;14.43;;
66546;SDS011;53400;50.364;14.874;2023-06-10T05:18:10;18.77;;;15.30;;
66546;SDS011;53400;50.364;14.874;2023-06-10T05:20:38;15.90;;;13.45;;
66546;SDS011;53400;50.364;14.874;2023-06-10T05:23:06;16.17;;;14.30;;
66546;SDS011;53400;50.364;14.874;2023-06-10T05:25:32;15.10;;;13.35;;
66546;SDS011;53400;50.364;14.874;2023-06-10T05:27:58;15.73;;;13.43;;
66546;SDS011;53400;50.364;14.874;2023-06-10T05:30:25;15.50;;;12.27;;
66546;SDS011;53400;50.364;14.874;2023-06-10T05:32:52;14.32;;;11.73;;
66546;SDS011;53400;50.364;14.874;2023-06-10T05:35:19;14.63;;;12.15;;
66546;SDS011;53400;50.364;14.874;2023-06-10T05:37:45;13.68;;;11.73;;
66546;SDS011;53400;50.364;14.874;2023-06-10T05:40:13;14.82;;;11.98;;
66546;SDS011;53400;50.364;14.874;2023-06-10T05:42:40;15.27;;;12.77;;
66546;SDS011;53400;50.364;14.874;2023-06-10T05:45:07;14.30;;;12.63;;
66546;SDS011;53400;50.364;14.874;2023-06-10T05:47:34;14.05;;;12.20;;
66546;SDS011;53400;50.364;14.874;2023-06-10T05:50:04;13.85;;;11.65;;
66546;SDS011;53400;50.364;14.874;2023-06-10T05:52:34;15.55;;;12.77;;
66546;SDS011;53400;50.364;14.874;2023-06-10T05:55:06;15.23;;;12.25;;
66546;SDS011;53400;50.364;14.874;2023-06-10T05:57:35;13.57;;;11.93;;
66546;SDS011;53400;50.364;14.874;2023-06-10T06:00:03;13.02;;;11.30;;
66546;SDS011;53400;50.364;14.874;2023-06-10T06:02:30;12.48;;;10.20;;
66546;SDS011;53400;50.364;14.874;2023-06-10T06:04:56;12.15;;;9.77;;
66546;SDS011;53400;50.364;14.874;2023-06-10T06:07:22;14.20;;;10.25;;
66546;SDS011;53400;50.364;14.874;2023-06-10T06:09:49;12.23;;;10.20;;
66546;SDS011;53400;50.364;14.874;2023-06-10T06:12:15;11.43;;;9.40;;
66546;SDS011;53400;50.364;14.874;2023-06-10T06:14:43;11.07;;;9.98;;
66546;SDS011;53400;50.364;14.874;2023-06-10T06:17:10;13.82;;;10.18;;
66546;SDS011;53400;50.364;14.874;2023-06-10T06:19:36;11.40;;;9.68;;
66546;SDS011;53400;50.364;14.874;2023-06-10T06:22:02;11.32;;;9.98;;
66546;SDS011;53400;50.364;14.874;2023-06-10T06:24:29;11.80;;;10.00;;
66546;SDS011;53400;50.364;14.874;2023-06-10T06:26:55;10.82;;;9.73;;
66546;SDS011;53400;50.364;14.874;2023-06-10T06:29:21;10.73;;;8.82;;
66546;SDS011;53400;50.364;14.874;2023-06-10T06:31:48;12.40;;;9.15;;
66546;SDS011;53400;50.364;14.874;2023-06-10T06:34:18;10.38;;;9.23;;
66546;SDS011;53400;50.364;14.874;2023-06-10T06:36:44;10.55;;;9.45;;
66546;SDS011;53400;50.364;14.874;2023-06-10T06:39:11;11.77;;;9.88;;
66546;SDS011;53400;50.364;14.874;2023-06-10T06:41:38;11.65;;;9.32;;
66546;SDS011;53400;50.364;14.874;2023-06-10T06:44:05;11.60;;;10.10;;
66546;SDS011;53400;50.364;14.874;2023-06-10T06:46:31;10.75;;;9.30;;
66546;SDS011;53400;50.364;14.874;2023-06-10T06:48:59;10.45;;;9.30;;
66546;SDS011;53400;50.364;14.874;2023-06-10T06:51:25;10.98;;;9.30;;
66546;SDS011;53400;50.364;14.874;2023-06-10T06:53:51;11.00;;;9.80;;
66546;SDS011;53400;50.364;14.874;2023-06-10T06:56:20;12.55;;;10.45;;
66546;SDS011;53400;50.364;14.874;2023-06-10T06:58:47;12.50;;;9.88;;
66546;SDS011;53400;50.364;14.874;2023-06-10T07:01:16;11.25;;;9.80;;
66546;SDS011;53400;50.364;14.874;2023-06-10T07:03:43;10.45;;;9.25;;
66546;SDS011;53400;50.364;14.874;2023-06-10T07:06:11;10.45;;;9.27;;
66546;SDS011;53400;50.364;14.874;2023-06-10T07:08:38;10.70;;;9.38;;
66546;SDS011;53400;50.364;14.874;2023-06-10T07:11:08;10.80;;;9.23;;
66546;SDS011;53400;50.364;14.874;2023-06-10T07:13:34;10.70;;;9.02;;
66546;SDS011;53400;50.364;14.874;2023-06-10T07:16:01;10.35;;;8.98;;
66546;SDS011;53400;50.364;14.874;2023-06-10T07:18:28;10.05;;;8.82;;
66546;SDS011;53400;50.364;14.874;2023-06-10T07:20:54;10.85;;;9.35;;
66546;SDS011;53400;50.364;14.874;2023-06-10T07:23:22;11.73;;;9.82;;
66546;SDS011;53400;50.364;14.874;2023-06-10T07:25:48;12.25;;;9.25;;
66546;SDS011;53400;50.364;14.874;2023-06-10T07:28:14;11.10;;;9.88;;
66546;SDS011;53400;50.364;14.874;2023-06-10T07:30:40;11.00;;;9.70;;
66546;SDS011;53400;50.364;14.874;2023-06-10T07:33:06;10.00;;;8.95;;
66546;SDS011;53400;50.364;14.874;2023-06-10T07:35:33;12.02;;;9.93;;
66546;SDS011;53400;50.364;14.874;2023-06-10T07:38:00;10.57;;;9.10;;
66546;SDS011;53400;50.364;14.874;2023-06-10T07:40:28;9.80;;;8.80;;
66546;SDS011;53400;50.364;14.874;2023-06-10T07:42:55;11.65;;;10.15;;
66546;SDS011;53400;50.364;14.874;2023-06-10T07:45:24;12.38;;;10.32;;
66546;SDS011;53400;50.364;14.874;2023-06-10T07:47:51;11.32;;;10.10;;
66546;SDS011;53400;50.364;14.874;2023-06-10T07:50:17;11.20;;;10.00;;
66546;SDS011;53400;50.364;14.874;2023-06-10T07:52:45;11.77;;;9.48;;
66546;SDS011;53400;50.364;14.874;2023-06-10T07:55:11;11.38;;;10.15;;
66546;SDS011;53400;50.364;14.874;2023-06-10T07:57:39;11.02;;;9.93;;
66546;SDS011;53400;50.364;14.874;2023-06-10T08:00:06;15.27;;;10.48;;
66546;SDS011;53400;50.364;14.874;2023-06-10T08:02:34;11.82;;;10.45;;
66546;SDS011;53400;50.364;14.874;2023-06-10T08:05:00;12.40;;;10.70;;
66546;SDS011;53400;50.364;14.874;2023-06-10T08:07:27;11.85;;;10.65;;
66546;SDS011;53400;50.364;14.874;2023-06-10T08:09:53;11.88;;;10.52;;
66546;SDS011;53400;50.364;14.874;2023-06-10T08:12:19;11.27;;;10.07;;
66546;SDS011;53400;50.364;14.874;2023-06-10T08:14:47;11.95;;;10.75;;
66546;SDS011;53400;50.364;14.874;2023-06-10T08:17:14;12.95;;;10.55;;
66546;SDS011;53400;50.364;14.874;2023-06-10T08:19:40;12.13;;;10.40;;
66546;SDS011;53400;50.364;14.874;2023-06-10T08:22:06;11.82;;;10.13;;
66546;SDS011;53400;50.364;14.874;2023-06-10T08:24:32;12.27;;;10.98;;
66546;SDS011;53400;50.364;14.874;2023-06-10T08:26:59;12.88;;;11.50;;
66546;SDS011;53400;50.364;14.874;2023-06-10T08:29:25;12.98;;;11.18;;
66546;SDS011;53400;50.364;14.874;2023-06-10T08:31:52;12.80;;;11.07;;
66546;SDS011;53400;50.364;14.874;2023-06-10T08:34:18;12.73;;;11.45;;
66546;SDS011;53400;50.364;14.874;2023-06-10T08:36:45;12.07;;;10.82;;
66546;SDS011;53400;50.364;14.874;2023-06-10T08:39:11;13.40;;;11.63;;
66546;SDS011;53400;50.364;14.874;2023-06-10T08:41:40;13.70;;;12.15;;
66546;SDS011;53400;50.364;14.874;2023-06-10T08:44:10;13.32;;;11.90;;
66546;SDS011;53400;50.364;14.874;2023-06-10T08:46:49;12.45;;;10.55;;
66546;SDS011;53400;50.364;14.874;2023-06-10T08:49:18;11.57;;;9.77;;
66546;SDS011;53400;50.364;14.874;2023-06-10T08:51:48;12.82;;;10.00;;
66546;SDS011;53400;50.364;14.874;2023-06-10T08:54:17;12.20;;;10.90;;
66546;SDS011;53400;50.364;14.874;2023-06-10T08:56:47;13.02;;;10.27;;
66546;SDS011;53400;50.364;14.874;2023-06-10T08:59:16;11.82;;;9.68;;
66546;SDS011;53400;50.364;14.874;2023-06-10T09:01:43;10.85;;;9.20;;
66546;SDS011;53400;50.364;14.874;2023-06-10T09:04:09;12.85;;;10.55;;
66546;SDS011;53400;50.364;14.874;2023-06-10T09:06:37;12.63;;;10.55;;
66546;SDS011;53400;50.364;14.874;2023-06-10T09:09:05;13.82;;;10.43;;
66546;SDS011;53400;50.364;14.874;2023-06-10T09:11:33;12.82;;;10.65;;
66546;SDS011;53400;50.364;14.874;2023-06-10T09:13:59;13.55;;;11.32;;
66546;SDS011;53400;50.364;14.874;2023-06-10T09:16:26;12.98;;;11.20;;
66546;SDS011;53400;50.364;14.874;2023-06-10T09:18:53;16.27;;;12.70;;
66546;SDS011;53400;50.364;14.874;2023-06-10T09:21:21;15.75;;;11.73;;
66546;SDS011;53400;50.364;14.874;2023-06-10T09:23:49;12.80;;;11.38;;
66546;SDS011;53400;50.364;14.874;2023-06-10T09:26:15;15.20;;;12.30;;
66546;SDS011;53400;50.364;14.874;2023-06-10T09:28:42;13.10;;;11.07;;
66546;SDS011;53400;50.364;14.874;2023-06-10T09:31:09;14.02;;;12.52;;
66546;SDS011;53400;50.364;14.874;2023-06-10T09:33:37;14.38;;;12.77;;
66546;SDS011;53400;50.364;14.874;2023-06-10T09:36:06;15.10;;;13.35;;
66546;SDS011;53400;50.364;14.874;2023-06-10T09:38:32;18.88;;;13.02;;
66546;SDS011;53400;50.364;14.874;2023-06-10T09:41:02;16.42;;;13.40;;
66546;SDS011;53400;50.364;14.874;2023-06-10T09:43:38;15.68;;;12.82;;
66546;SDS011;53400;50.364;14.874;2023-06-10T09:46:06;15.52;;;13.07;;
66546;SDS011;53400;50.364;14.874;2023-06-10T09:48:34;14.98;;;12.77;;
66546;SDS011;53400;50.364;14.874;2023-06-10T09:51:01;15.80;;;12.65;;
66546;SDS011;53400;50.364;14.874;2023-06-10T09:53:27;14.48;;;11.02;;
66546;SDS011;53400;50.364;14.874;2023-06-10T09:55:57;13.52;;;11.95;;
66546;SDS011;53400;50.364;14.874;2023-06-10T09:58:34;14.88;;;11.52;;
66546;SDS011;53400;50.364;14.874;2023-06-10T10:01:06;13.57;;;11.93;;
66546;SDS011;53400;50.364;14.874;2023-06-10T10:03:42;13.02;;;11.05;;
66546;SDS011;53400;50.364;14.874;2023-06-10T10:06:10;13.10;;;11.68;;
66546;SDS011;53400;50.364;14.874;2023-06-10T10:08:37;13.38;;;10.98;;
66546;SDS011;53400;50.364;14.874;2023-06-10T10:11:03;13.35;;;11.73;;
66546;SDS011;53400;50.364;14.874;2023-06-10T10:13:29;12.70;;;11.20;;
66546;SDS011;53400;50.364;14.874;2023-06-10T10:16:01;13.43;;;10.98;;
66546;SDS011;53400;50.364;14.874;2023-06-10T10:18:32;12.57;;;11.13;;
66546;SDS011;53400;50.364;14.874;2023-06-10T10:21:02;12.27;;;10.88;;
66546;SDS011;53400;50.364;14.874;2023-06-10T10:23:34;12.25;;;10.73;;
66546;SDS011;53400;50.364;14.874;2023-06-10T10:26:04;11.57;;;10.20;;
66546;SDS011;53400;50.364;14.874;2023-06-10T10:28:37;13.35;;;10.73;;
66546;SDS011;53400;50.364;14.874;2023-06-10T10:31:14;12.77;;;11.38;;
66546;SDS011;53400;50.364;14.874;2023-06-10T10:33:46;12.35;;;10.27;;
66546;SDS011;53400;50.364;14.874;2023-06-10T10:36:22;11.30;;;10.05;;
66546;SDS011;53400;50.364;14.874;2023-06-10T10:38:48;11.07;;;9.95;;
66546;SDS011;53400;50.364;14.874;2023-06-10T10:41:18;11.23;;;10.02;;
66546;SDS011;53400;50.364;14.874;2023-06-10T10:43:46;11.90;;;10.70;;
66546;SDS011;53400;50.364;14.874;2023-06-10T10:46:16;12.02;;;10.20;;
66546;SDS011;53400;50.364;14.874;2023-06-10T10:48:43;13.65;;;10.48;;
66546;SDS011;53400;50.364;14.874;2023-06-10T10:51:09;12.48;;;10.27;;
66546;SDS011;53400;50.364;14.874;2023-06-10T10:53:36;11.77;;;10.57;;
66546;SDS011;53400;50.364;14.874;2023-06-10T10:56:07;12.00;;;10.68;;
66546;SDS011;53400;50.364;14.874;2023-06-10T10:58:37;12.73;;;10.77;;
66546;SDS011;53400;50.364;14.874;2023-06-10T11:01:09;11.23;;;9.98;;
66546;SDS011;53400;50.364;14.874;2023-06-10T11:03:43;11.95;;;10.75;;
66546;SDS011;53400;50.364;14.874;2023-06-10T11:06:13;10.27;;;9.20;;
66546;SDS011;53400;50.364;14.874;2023-06-10T11:08:46;10.68;;;9.57;;
66546;SDS011;53400;50.364;14.874;2023-06-10T11:11:18;11.27;;;9.63;;
66546;SDS011;53400;50.364;14.874;2023-06-10T11:13:57;12.13;;;9.43;;
66546;SDS011;53400;50.364;14.874;2023-06-10T11:16:27;11.07;;;9.40;;
66546;SDS011;53400;50.364;14.874;2023-06-10T11:18:56;12.57;;;9.90;;
66546;SDS011;53400;50.364;14.874;2023-06-10T11:21:23;10.77;;;9.70;;
66546;SDS011;53400;50.364;14.874;2023-06-10T11:23:54;10.48;;;9.40;;
66546;SDS011;53400;50.364;14.874;2023-06-10T11:26:32;11.00;;;9.90;;
66546;SDS011;53400;50.364;14.874;2023-06-10T11:29:09;10.55;;;9.23;;
66546;SDS011;53400;50.364;14.874;2023-06-10T11:31:50;12.30;;;9.63;;
66546;SDS011;53400;50.364;14.874;2023-06-10T11:34:33;11.05;;;9.20;;
66546;SDS011;53400;50.364;14.874;2023-06-10T11:37:02;10.77;;;8.38;;
66546;SDS011;53400;50.364;14.874;2023-06-10T11:39:29;10.60;;;8.85;;
66546;SDS011;53400;50.364;14.874;2023-06-10T11:41:57;10.55;;;8.40;;
66546;SDS011;53400;50.364;14.874;2023-06-10T11:44:30;10.00;;;8.18;;
66546;SDS011;53400;50.364;14.874;2023-06-10T11:46:58;8.75;;;7.78;;
66546;SDS011;53400;50.364;14.874;2023-06-10T11:49:28;10.02;;;7.85;;
66546;SDS011;53400;50.364;14.874;2023-06-10T11:51:55;10.95;;;8.10;;
66546;SDS011;53400;50.364;14.874;2023-06-10T11:54:21;10.25;;;8.05;;
66546;SDS011;53400;50.364;14.874;2023-06-10T11:56:48;9.52;;;8.02;;
66546;SDS011;53400;50.364;14.874;2023-06-10T11:59:14;9.88;;;8.23;;
66546;SDS011;53400;50.364;14.874;2023-06-10T12:01:42;11.15;;;8.23;;
66546;SDS011;53400;50.364;14.874;2023-06-10T12:04:10;10.32;;;8.50;;
66546;SDS011;53400;50.364;14.874;2023-06-10T12:06:41;8.68;;;7.78;;
66546;SDS011;53400;50.364;14.874;2023-06-10T12:09:15;12.20;;;8.27;;
66546;SDS011;53400;50.364;14.874;2023-06-10T12:11:44;9.43;;;7.93;;
66546;SDS011;53400;50.364;14.874;2023-06-10T12:14:15;10.90;;;8.00;;
66546;SDS011;53400;50.364;14.874;2023-06-10T12:16:47;9.63;;;7.75;;
66546;SDS011;53400;50.364;14.874;2023-06-10T12:19:15;10.18;;;7.68;;
66546;SDS011;53400;50.364;14.874;2023-06-10T12:21:43;8.90;;;7.50;;
66546;SDS011;53400;50.364;14.874;2023-06-10T12:24:10;10.57;;;7.93;;
66546;SDS011;53400;50.364;14.874;2023-06-10T12:26:37;9.55;;;7.95;;
66546;SDS011;53400;50.364;14.874;2023-06-10T12:31:57;11.50;;;8.20;;
66546;SDS011;53400;50.364;14.874;2023-06-10T12:34:32;11.60;;;8.30;;
66546;SDS011;53400;50.364;14.874;2023-06-10T12:37:05;9.80;;;8.43;;
66546;SDS011;53400;50.364;14.874;2023-06-10T12:39:39;9.40;;;8.30;;
66546;SDS011;53400;50.364;14.874;2023-06-10T12:42:08;9.27;;;8.02;;
66546;SDS011;53400;50.364;14.874;2023-06-10T12:44:35;10.77;;;8.68;;
66546;SDS011;53400;50.364;14.874;2023-06-10T12:47:09;9.30;;;8.30;;
66546;SDS011;53400;50.364;14.874;2023-06-10T12:49:38;10.35;;;8.60;;
66546;SDS011;53400;50.364;14.874;2023-06-10T12:52:07;9.57;;;8.45;;
66546;SDS011;53400;50.364;14.874;2023-06-10T12:54:33;10.68;;;8.95;;
66546;SDS011;53400;50.364;14.874;2023-06-10T12:57:03;9.27;;;8.30;;
66546;SDS011;53400;50.364;14.874;2023-06-10T12:59:29;11.43;;;8.25;;
66546;SDS011;53400;50.364;14.874;2023-06-10T13:01:58;10.27;;;7.90;;
66546;SDS011;53400;50.364;14.874;2023-06-10T13:04:24;9.98;;;7.88;;
66546;SDS011;53400;50.364;14.874;2023-06-10T13:06:50;10.82;;;8.30;;
66546;SDS011;53400;50.364;14.874;2023-06-10T13:09:19;10.27;;;8.00;;
66546;SDS011;53400;50.364;14.874;2023-06-10T13:11:50;10.10;;;8.10;;
66546;SDS011;53400;50.364;14.874;2023-06-10T13:14:18;10.45;;;7.90;;
66546;SDS011;53400;50.364;14.874;2023-06-10T13:16:48;10.43;;;7.75;;
66546;SDS011;53400;50.364;14.874;2023-06-10T13:19:15;10.15;;;7.75;;
66546;SDS011;53400;50.364;14.874;2023-06-10T13:21:43;9.05;;;8.15;;
66546;SDS011;53400;50.364;14.874;2023-06-10T13:24:09;11.50;;;7.85;;
66546;SDS011;53400;50.364;14.874;2023-06-10T13:26:36;9.75;;;7.70;;
66546;SDS011;53400;50.364;14.874;2023-06-10T13:29:03;9.77;;;8.30;;
66546;SDS011;53400;50.364;14.874;2023-06-10T13:31:29;9.32;;;8.43;;
66546;SDS011;53400;50.364;14.874;2023-06-10T13:33:56;9.60;;;8.65;;
66546;SDS011;53400;50.364;14.874;2023-06-10T13:36:23;9.77;;;8.77;;
66546;SDS011;53400;50.364;14.874;2023-06-10T13:38:49;10.38;;;7.75;;
66546;SDS011;53400;50.364;14.874;2023-06-10T13:41:15;10.55;;;8.35;;
66546;SDS011;53400;50.364;14.874;2023-06-10T13:43:43;9.68;;;8.13;;
66546;SDS011;53400;50.364;14.874;2023-06-10T13:46:09;11.63;;;9.25;;
66546;SDS011;53400;50.364;14.874;2023-06-10T13:48:36;10.27;;;8.63;;
66546;SDS011;53400;50.364;14.874;2023-06-10T13:51:02;9.30;;;8.25;;
66546;SDS011;53400;50.364;14.874;2023-06-10T13:53:29;13.27;;;9.15;;
66546;SDS011;53400;50.364;14.874;2023-06-10T13:55:55;9.90;;;8.00;;
66546;SDS011;53400;50.364;14.874;2023-06-10T13:58:21;9.77;;;7.78;;
66546;SDS011;53400;50.364;14.874;2023-06-10T14:00:49;9.75;;;8.10;;
66546;SDS011;53400;50.364;14.874;2023-06-10T14:03:15;11.63;;;8.18;;
66546;SDS011;53400;50.364;14.874;2023-06-10T14:05:42;10.60;;;8.98;;
66546;SDS011;53400;50.364;14.874;2023-06-10T14:08:08;10.98;;;8.10;;
66546;SDS011;53400;50.364;14.874;2023-06-10T14:10:35;9.73;;;7.45;;
66546;SDS011;53400;50.364;14.874;2023-06-10T14:13:01;10.20;;;7.28;;
66546;SDS011;53400;50.364;14.874;2023-06-10T14:15:28;8.73;;;7.65;;
66546;SDS011;53400;50.364;14.874;2023-06-10T14:17:56;9.30;;;7.55;;
66546;SDS011;53400;50.364;14.874;2023-06-10T14:20:23;8.90;;;7.38;;